Catàleg de serveis del Meteocat
Campanya meteocatpedra

Dades de l'estació automàtica la Granada

?
?
Resum diari 22:00 TU
Dades diàries de l'estació meteorològica
Temperatura mitjana 13.8 °C
Temperatura màxima 18.7 °C 13:12 TU
Temperatura mínima 10.6 °C 5:30 TU
Humitat relativa mitjana 74%
Precipitació acumulada 0.1 mm
Ratxa màxima del vent (2 m) 44.3 km/h - 70º 15:01 TU
Irradiació solar global 13.0 MJ/m2

El tram horari està expressat en Temps Universal (TU). Cal sumar una hora en horari d'hivern i dues en horari d'estiu per passar a l'hora oficial.

la Granada

Metadades estació meteorol´gica
Municipi La Granada
Comarca Alt Penedès
Altitud 240 m
Data alta 25.12.1999
Estat actual Operativa
Dades de període
Període
TU
TM
°C
TX
°C
TN
°C
HRM
%
PPT
mm
VVM (2 m)
km/h
DVM (2 m)
graus
VVX (2 m)
km/h
RS
W/m2
00:00 - 00:30 11.2 11.3 11.1 94 0.0 8.6 25 15.8 0
00:30 - 01:00 11.5 11.6 11.3 94 0.0 8.6 19 15.1 0
01:00 - 01:30 11.8 11.9 11.6 92 0.0 6.1 13 11.9 0
01:30 - 02:00 12.0 12.0 11.9 91 0.0 5.4 18 11.2 0
02:00 - 02:30 12.0 12.0 11.8 91 0.0 7.2 24 12.6 0
02:30 - 03:00 11.6 11.8 11.2 92 0.0 6.8 24 13.0 0
03:00 - 03:30 11.2 11.4 11.0 93 0.0 9.4 29 15.8 0
03:30 - 04:00 10.9 11.0 10.8 94 0.0 11.5 27 19.1 0
04:00 - 04:30 10.7 10.8 10.6 94 0.0 11.5 21 18.7 0
04:30 - 05:00 10.6 10.6 10.6 94 0.0 13.0 19 23.0 0
05:00 - 05:30 10.6 10.6 10.6 95 0.0 11.2 20 18.4 9
05:30 - 06:00 10.7 10.8 10.6 94 0.0 11.9 29 22.7 32
06:00 - 06:30 10.9 11.1 10.8 93 0.0 10.1 35 19.4 77
06:30 - 07:00 11.4 11.6 11.1 90 0.0 10.1 24 18.0 132
07:00 - 07:30 11.8 12.1 11.6 87 0.0 11.2 22 18.7 150
07:30 - 08:00 12.3 12.5 12.1 84 0.0 11.5 28 20.9 155
08:00 - 08:30 12.7 12.9 12.5 79 0.1 13.3 23 23.0 126
08:30 - 09:00 13.0 13.3 12.6 80 0.0 10.8 29 17.6 233
09:00 - 09:30 13.3 13.4 13.1 77 0.0 11.5 39 19.1 203
09:30 - 10:00 13.7 13.9 13.4 74 0.0 12.2 39 20.9 238
10:00 - 10:30 14.0 14.5 13.7 70 0.0 15.1 34 26.3 299
10:30 - 11:00 14.8 14.9 14.4 63 0.0 16.6 40 28.1 330
11:00 - 11:30 15.3 16.1 14.9 59 0.0 13.0 46 27.0 328
11:30 - 12:00 16.8 17.5 16.1 52 0.0 18.0 63 32.4 650
12:00 - 12:30 17.1 18.1 16.7 51 0.0 23.0 65 39.2 546
12:30 - 13:00 18.2 18.6 18.0 53 0.0 20.5 49 36.7 878
13:00 - 13:30 18.3 18.7 17.8 55 0.0 19.8 63 41.4 649
13:30 - 14:00 18.2 18.5 17.6 54 0.0 18.0 100 34.2 478
14:00 - 14:30 17.3 17.6 16.9 59 0.0 19.8 83 35.3 271
14:30 - 15:00 16.7 17.1 16.4 61 0.0 23.8 68 43.9 248
15:00 - 15:30 16.2 16.4 16.0 64 0.0 23.0 74 44.3 222
15:30 - 16:00 16.1 16.4 16.0 62 0.0 24.5 61 41.8 284
16:00 - 16:30 16.4 16.6 16.3 60 0.0 16.2 72 36.0 295
16:30 - 17:00 16.3 16.5 16.1 62 0.0 13.3 53 31.7 187
17:00 - 17:30 15.7 16.0 15.5 61 0.0 18.0 57 34.6 89
17:30 - 18:00 15.3 15.5 15.2 62 0.0 14.0 69 29.5 35
18:00 - 18:30 15.0 15.2 14.8 65 0.0 18.4 67 32.0 13
18:30 - 19:00 14.5 14.8 14.3 69 0.0 15.5 63 27.4 6
19:00 - 19:30 14.3 14.5 14.0 68 0.0 12.6 54 24.5 4
19:30 - 20:00 13.9 14.0 13.7 71 0.0 10.8 35 20.5 4
20:00 - 20:30 13.8 13.9 13.6 68 0.0 13.0 45 21.6 4
20:30 - 21:00 13.8 13.9 13.6 64 0.0 14.8 46 23.8 5
21:00 - 21:30 13.9 14.0 13.7 62 0.0 15.8 50 28.4 5
21:30 - 22:00 13.7 13.9 13.6 63 0.0 15.8 51 28.4 5
22:00 - 22:30 13.7 13.7 13.6 63 0.0 14.8 39 23.8 5
22:30 - 23:00 (s/d) (s/d) (s/d) (s/d) (s/d) (s/d) (s/d) (s/d) (s/d)

Les dades en taronja només han passat un control de qualitat automàtic. Resta pendent la seva validació definitiva.